Time;durP1;ratioP1;P1;durP2;ratioP2;P2;SDS_P1;SDS_P2;PMS_P1;PMS_P2;Temp;Humidity;BMP_temperature;BMP_pressure;BME280_temperature;BME280_humidity;BME280_pressure;Samples;Min_cycle;Max_cycle;Signal;HPM_P1;HPM_P2
2024/02/16 00:00:17;;;;;;;4.40;2.23;;;14.70;1.00;;;;;;5077029;28;20198;-89
2024/02/16 00:02:43;;;;;;;5.20;2.57;;;14.40;1.00;;;;;;5077149;28;20572;-85
2024/02/16 00:05:11;;;;;;;2.83;2.07;;;14.60;1.00;;;;;;5076709;28;20543;-85
2024/02/16 00:07:37;;;;;;;5.50;2.30;;;14.60;1.00;;;;;;5077288;28;20616;-85
2024/02/16 00:10:04;;;;;;;4.20;2.03;;;14.60;1.00;;;;;;5076946;28;20176;-83
2024/02/16 00:12:31;;;;;;;3.50;2.00;;;14.70;1.00;;;;;;5076867;28;20182;-84
2024/02/16 00:14:58;;;;;;;3.47;2.20;;;14.70;1.00;;;;;;5077137;28;20176;-85
2024/02/16 00:17:26;;;;;;;4.13;2.07;;;14.60;1.00;;;;;;5076677;28;20674;-84
2024/02/16 00:19:53;;;;;;;3.77;2.10;;;14.60;1.00;;;;;;5076498;28;20254;-87
2024/02/16 00:22:18;;;;;;;5.00;2.30;;;14.70;1.00;;;;;;5076825;28;20176;-83
2024/02/16 00:24:44;;;;;;;5.43;2.20;;;14.60;1.00;;;;;;5076870;28;20237;-85
2024/02/16 00:27:10;;;;;;;5.90;2.10;;;14.60;1.00;;;;;;5076515;28;20689;-84
2024/02/16 00:29:38;;;;;;;4.33;2.27;;;14.60;1.00;;;;;;5076586;28;20581;-83
2024/02/16 00:32:05;;;;;;;4.07;2.37;;;14.60;1.00;;;;;;5076688;28;20178;-86
2024/02/16 00:34:32;;;;;;;3.83;2.20;;;14.60;1.00;;;;;;5077366;28;20167;-84
2024/02/16 00:36:58;;;;;;;4.40;2.20;;;14.60;1.00;;;;;;5076788;28;20215;-84
2024/02/16 00:39:24;;;;;;;6.13;2.90;;;14.70;1.00;;;;;;5076387;28;20537;-85
2024/02/16 00:41:51;;;;;;;4.43;2.30;;;14.60;1.00;;;;;;5075772;28;20172;-84
2024/02/16 00:44:17;;;;;;;3.83;1.97;;;14.70;1.00;;;;;;5076238;28;20551;-83
2024/02/16 00:46:43;;;;;;;5.73;2.30;;;14.70;1.00;;;;;;5076291;28;20646;-83
2024/02/16 00:49:10;;;;;;;3.97;2.20;;;14.70;1.00;;;;;;5075902;28;20179;-83
2024/02/16 00:51:36;;;;;;;3.93;2.60;;;14.70;1.00;;;;;;5076414;28;20737;-84
2024/02/16 00:54:03;;;;;;;4.70;2.37;;;14.70;1.00;;;;;;5076314;28;20172;-86
2024/02/16 00:56:29;;;;;;;4.57;2.30;;;14.70;1.00;;;;;;5076155;28;20228;-84
2024/02/16 00:58:55;;;;;;;3.60;2.60;;;14.70;1.00;;;;;;5094366;28;20278;-84
2024/02/16 01:01:22;;;;;;;5.30;2.40;;;14.70;1.00;;;;;;5094209;28;20217;-84
2024/02/16 01:03:48;;;;;;;4.80;2.13;;;14.60;1.00;;;;;;5075938;28;20178;-83
2024/02/16 01:06:14;;;;;;;3.37;2.20;;;14.60;1.00;;;;;;5075891;28;20181;-84
2024/02/16 01:08:40;;;;;;;3.47;2.27;;;14.60;1.00;;;;;;5075817;28;20177;-83
2024/02/16 01:11:07;;;;;;;3.47;2.30;;;14.60;1.00;;;;;;5075819;28;20177;-82
2024/02/16 01:13:33;;;;;;;2.90;2.20;;;14.60;1.00;;;;;;5094022;28;20174;-84
2024/02/16 01:15:59;;;;;;;3.83;2.13;;;14.50;1.00;;;;;;5075455;28;20221;-85
2024/02/16 01:18:26;;;;;;;3.90;2.30;;;14.60;1.00;;;;;;5075195;28;20171;-83
2024/02/16 01:20:51;;;;;;;3.80;2.40;;;14.60;1.00;;;;;;5075547;28;20235;-83
2024/02/16 01:23:17;;;;;;;4.17;2.60;;;14.60;1.00;;;;;;5075570;28;20298;-85
2024/02/16 01:25:43;;;;;;;3.80;2.33;;;14.60;1.00;;;;;;5075372;28;20580;-83
2024/02/16 01:28:09;;;;;;;4.57;2.43;;;14.60;1.00;;;;;;5093760;28;20571;-83
2024/02/16 01:30:34;;;;;;;4.97;2.37;;;14.60;1.00;;;;;;5075436;28;20655;-82
2024/02/16 01:33:00;;;;;;;3.17;2.13;;;14.60;1.00;;;;;;5075149;28;20652;-84
2024/02/16 01:35:26;;;;;;;4.67;2.50;;;14.60;1.00;;;;;;5075236;28;20203;-83
2024/02/16 01:37:51;;;;;;;4.67;2.70;;;14.60;1.00;;;;;;5075213;28;20188;-83
2024/02/16 01:40:17;;;;;;;4.93;2.63;;;14.60;1.00;;;;;;5093409;28;20699;-83
2024/02/16 01:42:49;;;;;;;5.67;2.47;;;14.70;1.00;;;;;;5093477;28;20178;-84
2024/02/16 01:45:16;;;;;;;4.63;2.30;;;14.70;1.00;;;;;;5075205;28;20610;-83
2024/02/16 01:47:44;;;;;;;3.80;2.33;;;14.60;1.00;;;;;;5074874;28;20274;-82
2024/02/16 01:50:10;;;;;;;4.90;2.50;;;14.70;1.00;;;;;;5074976;28;20228;-83
2024/02/16 01:52:36;;;;;;;5.00;2.43;;;14.70;1.00;;;;;;5074456;28;20167;-83
2024/02/16 01:55:04;;;;;;;6.87;2.77;;;14.70;1.00;;;;;;5075161;28;20184;-86
2024/02/16 01:57:31;;;;;;;3.97;2.57;;;14.70;1.00;;;;;;5093182;28;20213;-83
2024/02/16 01:59:57;;;;;;;5.13;2.40;;;14.70;1.00;;;;;;5092967;28;20191;-85
2024/02/16 02:02:23;;;;;;;2.90;2.03;;;14.60;1.00;;;;;;5074820;28;20198;-83
2024/02/16 02:04:49;;;;;;;3.80;2.40;;;14.60;1.00;;;;;;5075130;28;20258;-83
2024/02/16 02:07:15;;;;;;;3.57;2.40;;;14.60;1.00;;;;;;5075139;28;20214;-89
2024/02/16 02:09:42;;;;;;;3.57;2.33;;;14.60;1.00;;;;;;5092842;28;20178;-88
2024/02/16 02:12:10;;;;;;;5.33;3.07;;;14.60;1.00;;;;;;5092936;28;20179;-84
2024/02/16 02:14:39;;;;;;;3.57;2.20;;;14.50;1.00;;;;;;5075166;28;20179;-85
2024/02/16 02:17:05;;;;;;;5.23;2.57;;;14.60;1.00;;;;;;5093016;28;20211;-83
2024/02/16 02:19:30;;;;;;;3.33;2.20;;;14.60;1.00;;;;;;5092186;28;20172;-83
2024/02/16 02:21:57;;;;;;;4.00;2.30;;;14.60;1.00;;;;;;5074764;28;20269;-84
2024/02/16 02:24:22;;;;;;;3.93;2.30;;;14.60;1.00;;;;;;5074750;28;20167;-83
2024/02/16 02:26:48;;;;;;;4.77;2.87;;;14.60;1.00;;;;;;5092770;28;20171;-84
2024/02/16 02:29:14;;;;;;;4.47;2.60;;;14.60;1.00;;;;;;5074267;28;20526;-84
2024/02/16 02:31:40;;;;;;;4.93;2.40;;;14.70;1.00;;;;;;5074847;28;20635;-82
2024/02/16 02:34:06;;;;;;;4.17;2.40;;;14.60;1.00;;;;;;5074726;28;20199;-82
2024/02/16 02:36:35;;;;;;;5.03;2.53;;;14.60;1.00;;;;;;5074582;28;20670;-84
2024/02/16 02:39:01;;;;;;;5.33;2.50;;;14.60;1.00;;;;;;5074668;28;20177;-83
2024/02/16 02:41:26;;;;;;;4.10;2.67;;;14.60;1.00;;;;;;5074845;28;20631;-85
2024/02/16 02:43:53;;;;;;;5.40;2.63;;;14.60;1.00;;;;;;5074296;28;20182;-86
2024/02/16 02:46:18;;;;;;;5.97;2.40;;;14.60;1.00;;;;;;5074749;28;20196;-83
2024/02/16 02:48:45;;;;;;;4.27;2.70;;;14.60;1.00;;;;;;5074517;28;20172;-84
2024/02/16 02:51:10;;;;;;;5.70;2.70;;;14.70;1.00;;;;;;5075154;28;20577;-85
2024/02/16 02:53:36;;;;;;;3.50;2.47;;;14.60;1.00;;;;;;5081740;28;20215;-83
2024/02/16 02:56:02;;;;;;;5.67;2.80;;;14.70;1.00;;;;;;5075098;28;20279;-86
2024/02/16 02:58:28;;;;;;;4.10;2.63;;;14.70;1.00;;;;;;5074155;28;20195;-84
2024/02/16 03:00:55;;;;;;;4.13;2.60;;;14.70;1.00;;;;;;5074045;28;20198;-84
2024/02/16 03:03:21;;;;;;;4.90;2.87;;;14.70;1.00;;;;;;5092589;28;20170;-83
2024/02/16 03:05:48;;;;;;;4.90;2.53;;;14.70;1.00;;;;;;5096440;28;20652;-84
2024/02/16 03:08:14;;;;;;;5.30;2.60;;;14.80;1.00;;;;;;5078347;28;20195;-84
2024/02/16 03:10:40;;;;;;;4.20;2.53;;;14.80;1.00;;;;;;5096453;28;20185;-89
2024/02/16 03:13:08;;;;;;;5.53;2.90;;;14.80;1.00;;;;;;5077943;28;20190;-83
2024/02/16 03:15:35;;;;;;;6.73;2.83;;;14.80;1.00;;;;;;5077890;28;20187;-83
2024/02/16 03:18:02;;;;;;;4.60;2.60;;;14.80;1.00;;;;;;5078171;28;20180;-83
2024/02/16 03:20:27;;;;;;;4.70;2.60;;;14.80;1.00;;;;;;5078108;28;20199;-85
2024/02/16 03:22:53;;;;;;;5.33;2.67;;;14.80;1.00;;;;;;5078193;28;20209;-85
2024/02/16 03:25:19;;;;;;;6.50;2.90;;;14.70;1.00;;;;;;5078022;28;20539;-84
2024/02/16 03:27:45;;;;;;;4.87;2.67;;;14.70;1.20;;;;;;5077655;28;20177;-82
2024/02/16 03:30:11;;;;;;;4.20;2.87;;;14.70;1.00;;;;;;5077658;28;20712;-84
2024/02/16 03:32:37;;;;;;;6.00;2.80;;;14.70;1.00;;;;;;5077713;28;20204;-84
2024/02/16 03:35:04;;;;;;;5.60;2.80;;;14.70;1.40;;;;;;5077591;28;20244;-82
2024/02/16 03:37:30;;;;;;;4.87;2.80;;;14.70;2.60;;;;;;5077709;28;20644;-85
2024/02/16 03:39:56;;;;;;;6.53;2.87;;;14.70;3.70;;;;;;5095947;28;20192;-84
2024/02/16 03:42:22;;;;;;;7.77;3.00;;;14.70;3.30;;;;;;5077253;28;20206;-84
2024/02/16 03:44:47;;;;;;;7.37;2.63;;;14.80;3.40;;;;;;5077680;28;20654;-87
2024/02/16 03:47:13;;;;;;;4.53;2.57;;;14.70;5.30;;;;;;5077591;28;20180;-84
2024/02/16 03:49:39;;;;;;;5.17;2.70;;;14.70;6.60;;;;;;5095531;28;20163;-84
2024/02/16 03:52:05;;;;;;;4.60;2.80;;;14.80;7.60;;;;;;5095447;28;20640;-83
2024/02/16 03:54:31;;;;;;;8.40;2.90;;;14.70;6.60;;;;;;5077395;28;20167;-82
2024/02/16 03:56:58;;;;;;;5.33;2.80;;;14.70;7.40;;;;;;5076906;28;20204;-83
2024/02/16 03:59:24;;;;;;;5.93;3.10;;;14.70;8.90;;;;;;5077536;28;20278;-83
2024/02/16 04:01:49;;;;;;;6.27;2.80;;;14.70;9.40;;;;;;5077569;28;20678;-83
2024/02/16 04:04:16;;;;;;;5.83;2.67;;;14.70;10.60;;;;;;5077234;28;20168;-84
2024/02/16 04:06:41;;;;;;;7.13;3.00;;;14.70;11.60;;;;;;5076951;28;20178;-83
2024/02/16 04:09:07;;;;;;;4.13;2.40;;;14.70;11.80;;;;;;5077183;28;20183;-83
2024/02/16 04:11:34;;;;;;;4.97;2.63;;;14.70;12.10;;;;;;5076853;28;20225;-82
2024/02/16 04:13:59;;;;;;;4.03;2.87;;;14.70;12.40;;;;;;5077081;28;20174;-82
2024/02/16 04:16:25;;;;;;;4.10;2.80;;;14.80;13.10;;;;;;5075648;28;20236;-84
2024/02/16 04:18:51;;;;;;;4.83;2.90;;;14.70;13.20;;;;;;5076973;28;20174;-83
2024/02/16 04:21:17;;;;;;;7.20;3.10;;;14.70;13.80;;;;;;5076925;28;20224;-84
2024/02/16 04:23:44;;;;;;;4.43;2.70;;;14.70;14.30;;;;;;5077028;28;20571;-84
2024/02/16 04:26:09;;;;;;;5.80;3.00;;;14.70;14.70;;;;;;5076336;28;20172;-85
2024/02/16 04:28:35;;;;;;;7.17;2.93;;;14.70;15.60;;;;;;5076621;28;20652;-82
2024/02/16 04:31:01;;;;;;;4.00;3.03;;;14.80;14.60;;;;;;5076606;28;20230;-82
2024/02/16 04:33:27;;;;;;;4.97;2.57;;;14.80;15.00;;;;;;5076774;28;20180;-88
2024/02/16 04:35:52;;;;;;;4.93;2.60;;;14.80;14.90;;;;;;5076770;28;20207;-84
2024/02/16 04:38:19;;;;;;;5.97;3.13;;;14.80;14.40;;;;;;5076581;28;20271;-85
2024/02/16 04:40:45;;;;;;;5.80;3.17;;;14.80;14.90;;;;;;5076119;28;20185;-83
2024/02/16 04:43:11;;;;;;;5.10;3.13;;;14.80;15.30;;;;;;5076498;28;20171;-82
2024/02/16 04:45:36;;;;;;;5.30;2.73;;;14.80;16.10;;;;;;5076119;28;20192;-87
2024/02/16 04:48:06;;;;;;;6.13;3.30;;;14.80;16.20;;;;;;5076670;28;20174;-87
2024/02/16 04:50:33;;;;;;;5.00;2.60;;;14.80;17.90;;;;;;5075849;28;20168;-83
2024/02/16 04:52:59;;;;;;;6.33;3.03;;;14.80;19.00;;;;;;5076296;28;20222;-82
2024/02/16 04:55:25;;;;;;;4.30;3.10;;;14.80;18.20;;;;;;5075889;28;20171;-83
2024/02/16 04:57:51;;;;;;;5.93;3.20;;;14.80;19.00;;;;;;5076155;28;20194;-83
2024/02/16 05:00:16;;;;;;;5.00;2.90;;;14.80;18.40;;;;;;5094161;28;20184;-85
2024/02/16 05:02:42;;;;;;;9.40;2.80;;;14.80;19.60;;;;;;5076234;28;20192;-85
2024/02/16 05:05:08;;;;;;;6.73;3.20;;;14.90;19.60;;;;;;5076065;28;20172;-85
2024/02/16 05:07:36;;;;;;;5.33;2.80;;;15.00;18.20;;;;;;5075843;28;20167;-84
2024/02/16 05:10:02;;;;;;;5.00;3.30;;;15.00;17.50;;;;;;5079533;28;20184;-83
2024/02/16 05:12:27;;;;;;;6.67;3.50;;;15.00;17.90;;;;;;5076452;28;20179;-85
2024/02/16 05:14:53;;;;;;;5.90;3.13;;;15.00;16.70;;;;;;5094061;28;20510;-89
2024/02/16 05:17:22;;;;;;;4.60;2.80;;;15.00;19.50;;;;;;5075557;28;20212;-84
2024/02/16 05:19:48;;;;;;;7.93;3.20;;;15.00;21.20;;;;;;5093967;28;20210;-84
2024/02/16 05:22:14;;;;;;;7.50;3.10;;;15.00;19.80;;;;;;5075971;28;20254;-88
2024/02/16 05:24:40;;;;;;;8.70;3.27;;;15.00;20.40;;;;;;5075446;28;20171;-84
2024/02/16 05:27:06;;;;;;;5.70;3.10;;;15.00;21.40;;;;;;5075751;28;20179;-85
2024/02/16 05:29:31;;;;;;;4.57;3.00;;;15.00;21.90;;;;;;5075268;28;20206;-83
2024/02/16 05:31:57;;;;;;;6.97;3.80;;;15.00;21.50;;;;;;5075637;28;20182;-84
2024/02/16 05:34:23;;;;;;;7.87;3.20;;;15.10;20.20;;;;;;5075414;28;20168;-85
2024/02/16 05:36:50;;;;;;;8.07;3.33;;;15.10;19.10;;;;;;5075366;28;20207;-84
2024/02/16 05:39:26;;;;;;;5.63;2.90;;;15.10;19.30;;;;;;5075318;28;20178;-85
2024/02/16 05:41:53;;;;;;;5.33;3.20;;;15.20;16.70;;;;;;5075700;28;20172;-84
2024/02/16 05:44:19;;;;;;;6.57;3.50;;;15.10;20.30;;;;;;5075600;28;20174;-88
2024/02/16 05:46:46;;;;;;;4.80;3.30;;;15.00;22.20;;;;;;5075091;28;20183;-84
2024/02/16 05:49:12;;;;;;;7.30;4.03;;;15.00;23.40;;;;;;5075352;28;20198;-85
2024/02/16 05:51:40;;;;;;;5.23;3.37;;;15.10;22.90;;;;;;5075394;28;20264;-84
2024/02/16 05:54:07;;;;;;;7.47;3.63;;;15.00;24.30;;;;;;5093270;28;20236;-89
2024/02/16 05:56:34;;;;;;;6.57;3.40;;;15.00;25.40;;;;;;5074888;28;20212;-89
2024/02/16 05:59:00;;;;;;;6.47;3.50;;;15.00;24.30;;;;;;5074718;28;20317;-85
2024/02/16 06:01:27;;;;;;;11.80;3.90;;;15.10;23.20;;;;;;5074751;28;20203;-84
2024/02/16 06:03:53;;;;;;;6.83;3.57;;;15.00;24.20;;;;;;5075030;28;20233;-84
2024/02/16 06:06:19;;;;;;;7.50;3.70;;;15.00;25.20;;;;;;5074846;28;20171;-88
2024/02/16 06:08:44;;;;;;;8.27;3.60;;;15.00;24.70;;;;;;5074236;28;20191;-84
2024/02/16 06:11:10;;;;;;;6.17;3.67;;;15.00;26.90;;;;;;5074776;28;20175;-84
2024/02/16 06:13:36;;;;;;;6.70;3.70;;;14.90;28.60;;;;;;5092744;28;20195;-84
2024/02/16 06:16:05;;;;;;;8.97;3.97;;;14.90;29.50;;;;;;5074583;28;20219;-83
2024/02/16 06:18:34;;;;;;;7.07;3.67;;;15.00;27.50;;;;;;5074778;28;20548;-84
2024/02/16 06:21:00;;;;;;;5.97;3.83;;;14.90;30.20;;;;;;5074113;28;20175;-85
2024/02/16 06:23:25;;;;;;;7.27;3.73;;;14.90;33.90;;;;;;5073554;28;20680;-84
2024/02/16 06:25:51;;;;;;;7.27;4.10;;;14.90;35.60;;;;;;5074485;28;20184;-84
2024/02/16 06:28:17;;;;;;;7.20;4.03;;;14.90;37.60;;;;;;5074631;28;20661;-84
2024/02/16 06:30:42;;;;;;;7.50;3.97;;;14.90;40.70;;;;;;5074477;28;20224;-84
2024/02/16 06:33:10;;;;;;;7.07;4.00;;;14.80;46.30;;;;;;5092879;28;20172;-84
2024/02/16 06:35:35;;;;;;;8.63;4.20;;;14.80;50.30;;;;;;5074603;28;20639;-88
2024/02/16 06:38:01;;;;;;;7.60;4.17;;;14.70;53.10;;;;;;5074409;28;20168;-83
2024/02/16 06:40:27;;;;;;;9.97;5.10;;;14.70;53.90;;;;;;5078332;28;20175;-84
2024/02/16 06:42:54;;;;;;;9.57;5.07;;;14.60;57.00;;;;;;5078989;28;20232;-82
2024/02/16 06:45:20;;;;;;;8.77;4.77;;;14.60;59.20;;;;;;5078612;28;20243;-84
2024/02/16 06:47:45;;;;;;;10.50;4.90;;;14.60;58.50;;;;;;5078624;28;20175;-83
2024/02/16 06:50:11;;;;;;;9.47;4.70;;;14.60;60.50;;;;;;5096949;28;20167;-84
2024/02/16 06:52:37;;;;;;;9.37;4.80;;;14.50;63.70;;;;;;5079229;28;20183;-86
2024/02/16 06:55:03;;;;;;;13.57;5.57;;;14.50;70.90;;;;;;5078039;28;20262;-84
2024/02/16 06:57:31;;;;;;;10.50;5.37;;;14.50;72.80;;;;;;5078134;28;20211;-84
2024/02/16 06:59:57;;;;;;;10.17;5.50;;;14.60;69.60;;;;;;5096501;28;20180;-84
2024/02/16 07:02:23;;;;;;;12.70;5.63;;;14.70;67.20;;;;;;5077986;28;20298;-83
2024/02/16 07:04:48;;;;;;;9.80;4.90;;;14.70;67.90;;;;;;5077763;28;20523;-85
2024/02/16 07:07:14;;;;;;;10.23;5.40;;;14.60;71.10;;;;;;5078195;28;20241;-83
2024/02/16 07:09:40;;;;;;;8.93;5.03;;;14.60;74.40;;;;;;5077575;28;20262;-85
2024/02/16 07:12:06;;;;;;;10.13;5.67;;;14.60;71.40;;;;;;5077704;28;20254;-86
2024/02/16 07:14:32;;;;;;;9.93;5.67;;;14.50;75.60;;;;;;5077901;28;20215;-85
2024/02/16 07:16:58;;;;;;;9.90;5.30;;;14.40;83.40;;;;;;5096087;28;20246;-85
2024/02/16 07:19:24;;;;;;;10.27;5.70;;;14.50;84.30;;;;;;5077369;28;20184;-84
2024/02/16 07:21:50;;;;;;;8.77;5.20;;;14.50;84.00;;;;;;5077985;28;20171;-83
2024/02/16 07:24:16;;;;;;;13.13;5.60;;;14.50;82.10;;;;;;5078686;28;20183;-84
2024/02/16 07:26:42;;;;;;;11.90;5.67;;;14.40;83.50;;;;;;5096422;28;20218;-84
2024/02/16 07:29:08;;;;;;;10.83;5.57;;;14.50;83.40;;;;;;5077783;28;20182;-83
2024/02/16 07:31:34;;;;;;;11.33;5.53;;;14.50;83.30;;;;;;5077813;28;20169;-84
2024/02/16 07:34:01;;;;;;;11.47;6.10;;;14.40;81.50;;;;;;5095617;28;20342;-84
2024/02/16 07:36:26;;;;;;;10.43;5.90;;;14.40;81.80;;;;;;5077302;28;20203;-84
2024/02/16 07:38:52;;;;;;;12.73;6.27;;;14.40;83.10;;;;;;5077524;28;20538;-84
2024/02/16 07:41:18;;;;;;;13.63;6.60;;;14.40;84.80;;;;;;5077441;28;20535;-84
2024/02/16 07:43:43;;;;;;;11.03;5.90;;;14.40;81.50;;;;;;5095948;28;20620;-86
2024/02/16 07:46:09;;;;;;;13.50;6.47;;;14.50;78.70;;;;;;5077083;28;20528;-85
2024/02/16 07:48:35;;;;;;;11.07;5.83;;;14.50;73.60;;;;;;5095186;28;20171;-83
2024/02/16 07:51:02;;;;;;;18.23;7.00;;;14.50;76.20;;;;;;5094076;28;20170;-85
2024/02/16 07:53:28;;;;;;;12.10;6.03;;;14.50;73.00;;;;;;5077626;28;20174;-83
2024/02/16 07:55:54;;;;;;;12.93;6.23;;;14.60;69.80;;;;;;5095055;28;20199;-85
2024/02/16 07:58:20;;;;;;;13.63;6.70;;;14.60;64.50;;;;;;5077166;28;20191;-84
2024/02/16 08:00:46;;;;;;;12.63;6.83;;;14.60;65.70;;;;;;5077261;28;20190;-85
2024/02/16 08:03:11;;;;;;;11.87;6.73;;;14.60;59.10;;;;;;5077066;28;20190;-84
2024/02/16 08:05:37;;;;;;;11.23;6.60;;;14.70;55.90;;;;;;5076976;28;20283;-84
2024/02/16 08:08:03;;;;;;;16.80;7.63;;;14.60;52.20;;;;;;5077416;28;20176;-83
2024/02/16 08:10:29;;;;;;;11.80;6.77;;;14.70;46.90;;;;;;5077657;28;20168;-85
2024/02/16 08:12:55;;;;;;;14.20;7.43;;;14.70;45.90;;;;;;5077429;28;20571;-85
2024/02/16 08:15:23;;;;;;;15.57;6.90;;;14.80;41.00;;;;;;5078106;28;20179;-84
2024/02/16 08:17:52;;;;;;;16.13;7.50;;;14.80;41.10;;;;;;5077173;28;20638;-84
2024/02/16 08:20:18;;;;;;;14.90;8.00;;;14.80;41.00;;;;;;5079053;28;20178;-84
2024/02/16 08:22:44;;;;;;;13.87;7.73;;;14.70;43.50;;;;;;5076892;28;20180;-85
2024/02/16 08:25:10;;;;;;;14.07;7.13;;;14.80;41.80;;;;;;5076327;28;20176;-85
2024/02/16 08:27:37;;;;;;;15.03;7.80;;;14.80;43.40;;;;;;5076191;28;20172;-85
2024/02/16 08:30:04;;;;;;;14.83;7.67;;;14.90;39.40;;;;;;5076562;28;20172;-84
2024/02/16 08:32:29;;;;;;;11.43;6.70;;;14.70;45.90;;;;;;5076313;28;20178;-85
2024/02/16 08:34:55;;;;;;;12.37;6.60;;;14.70;49.80;;;;;;5076280;28;20172;-85
2024/02/16 08:37:21;;;;;;;12.67;7.57;;;14.70;56.30;;;;;;5076488;28;20207;-85
2024/02/16 08:39:47;;;;;;;11.03;6.77;;;14.60;62.20;;;;;;5076233;28;20186;-85
2024/02/16 08:42:13;;;;;;;10.83;6.33;;;14.60;69.50;;;;;;5076158;28;20168;-84
2024/02/16 08:44:40;;;;;;;11.53;6.57;;;14.50;74.70;;;;;;5076125;28;20172;-84
2024/02/16 08:47:07;;;;;;;12.30;6.67;;;14.50;82.20;;;;;;5075642;28;20175;-84
2024/02/16 08:49:34;;;;;;;10.57;6.70;;;14.30;90.10;;;;;;5075872;28;20251;-83
2024/02/16 08:52:00;;;;;;;13.43;6.93;;;14.40;91.60;;;;;;5076005;28;20718;-85
2024/02/16 08:54:25;;;;;;;14.57;7.97;;;14.40;91.50;;;;;;5075688;28;20255;-85
2024/02/16 08:56:53;;;;;;;15.60;7.13;;;14.40;91.00;;;;;;5075516;28;20579;-85
2024/02/16 08:59:18;;;;;;;12.77;7.17;;;14.40;91.60;;;;;;5075334;28;20200;-84
2024/02/16 09:01:44;;;;;;;12.73;7.13;;;14.40;93.20;;;;;;5075071;28;20195;-84
2024/02/16 09:04:10;;;;;;;14.00;7.07;;;14.40;93.50;;;;;;5094080;28;20163;-84
2024/02/16 09:06:35;;;;;;;16.03;7.53;;;14.40;92.10;;;;;;5075498;28;20204;-84
2024/02/16 09:09:02;;;;;;;12.97;6.73;;;14.50;91.80;;;;;;5075432;28;20209;-83
2024/02/16 09:11:28;;;;;;;12.83;6.97;;;14.50;91.80;;;;;;5093736;28;20176;-84
2024/02/16 09:13:53;;;;;;;9.60;6.63;;;14.50;92.40;;;;;;5075907;28;20176;-84
2024/02/16 09:16:19;;;;;;;14.33;7.70;;;14.50;92.50;;;;;;5075069;28;20234;-84
2024/02/16 09:18:47;;;;;;;9.90;6.70;;;14.50;92.70;;;;;;5075498;28;20224;-84
2024/02/16 09:21:13;;;;;;;13.43;6.40;;;14.50;93.30;;;;;;5075656;28;20172;-85
2024/02/16 09:23:40;;;;;;;12.27;6.37;;;14.70;92.90;;;;;;5075239;28;20530;-86
2024/02/16 09:26:09;;;;;;;16.40;6.93;;;14.70;93.60;;;;;;5075140;28;20178;-84
2024/02/16 09:28:41;;;;;;;16.53;7.23;;;14.70;93.40;;;;;;5075095;28;20172;-84
2024/02/16 09:31:08;;;;;;;15.80;7.57;;;14.70;95.10;;;;;;5074820;28;20643;-85
2024/02/16 09:33:34;;;;;;;17.97;7.33;;;14.60;95.90;;;;;;5093574;28;20160;-86
2024/02/16 09:36:00;;;;;;;14.67;6.57;;;14.60;97.40;;;;;;5075267;28;20206;-84
2024/02/16 09:38:26;;;;;;;19.73;6.33;;;14.50;99.90;;;;;;5075049;28;20195;-84
2024/02/16 09:40:52;;;;;;;16.83;10.23;;;14.50;99.90;;;;;;5075474;28;20288;-84
2024/02/16 09:43:28;;;;;;;19.03;7.70;;;14.50;99.90;;;;;;5074993;28;20210;-85
2024/02/16 09:45:59;;;;;;;10.97;6.50;;;14.60;99.90;;;;;;5077075;28;20177;-84
2024/02/16 09:48:27;;;;;;;10.93;6.13;;;14.50;99.90;;;;;;5080486;28;20628;-85
2024/02/16 09:50:56;;;;;;;11.17;5.67;;;14.50;99.90;;;;;;5075148;28;20698;-84
2024/02/16 09:53:25;;;;;;;10.97;5.73;;;14.50;99.90;;;;;;5093162;28;20168;-84
2024/02/16 09:55:50;;;;;;;14.43;6.20;;;14.50;99.90;;;;;;5093973;28;20164;-83
2024/02/16 09:58:18;;;;;;;8.30;5.43;;;14.60;99.90;;;;;;5074454;28;20579;-84
2024/02/16 10:00:51;;;;;;;11.07;5.60;;;14.50;99.90;;;;;;5074799;28;20190;-84
2024/02/16 10:03:27;;;;;;;12.30;5.90;;;14.50;99.90;;;;;;5092978;28;20171;-85
2024/02/16 10:06:07;;;;;;;10.17;5.60;;;14.50;99.90;;;;;;5093144;28;20174;-84
2024/02/16 10:08:34;;;;;;;9.37;6.40;;;14.50;99.90;;;;;;5074478;28;20175;-84
2024/02/16 10:11:04;;;;;;;12.97;6.07;;;14.60;99.90;;;;;;5074644;28;20262;-86
2024/02/16 10:13:31;;;;;;;12.07;6.63;;;14.70;99.90;;;;;;5073320;28;20216;-86
2024/02/16 10:16:11;;;;;;;12.33;6.40;;;14.80;99.90;;;;;;5074696;28;20215;-84
2024/02/16 10:18:40;;;;;;;13.57;6.23;;;14.70;99.90;;;;;;5074766;28;20275;-85
2024/02/16 10:21:05;;;;;;;15.93;7.03;;;14.60;99.90;;;;;;5074838;28;20171;-85
2024/02/16 10:23:32;;;;;;;10.47;6.30;;;14.50;99.90;;;;;;5074888;28;20175;-85
2024/02/16 10:25:59;;;;;;;10.67;6.47;;;14.50;99.90;;;;;;5074863;28;20520;-85
2024/02/16 10:28:30;;;;;;;11.43;6.13;;;14.60;99.90;;;;;;5074413;28;20438;-85
2024/02/16 10:31:01;;;;;;;11.23;6.50;;;14.60;99.90;;;;;;5074880;28;20168;-84
2024/02/16 10:33:29;;;;;;;11.23;6.50;;;14.50;99.90;;;;;;5074456;28;20614;-84
2024/02/16 10:35:59;;;;;;;12.33;6.60;;;14.60;99.90;;;;;;5074250;28;20171;-84
2024/02/16 10:38:27;;;;;;;16.40;7.10;;;14.60;99.90;;;;;;5074265;28;20179;-85
2024/02/16 10:40:56;;;;;;;22.70;7.80;;;14.70;99.90;;;;;;5074944;28;20185;-85
2024/02/16 10:43:22;;;;;;;70.60;15.30;;;14.50;99.90;;;;;;5074002;28;20175;-83
2024/02/16 10:45:52;;;;;;;11.43;7.17;;;14.50;99.90;;;;;;5074555;28;20191;-84
2024/02/16 10:48:18;;;;;;;18.37;7.83;;;14.50;99.90;;;;;;5074136;28;20255;-86
2024/02/16 10:50:44;;;;;;;15.03;8.33;;;14.60;99.90;;;;;;5074199;28;20172;-85
2024/02/16 10:53:32;;;;;;;14.77;7.60;;;14.50;99.90;;;;;;5073714;28;20185;-84
2024/02/16 10:55:59;;;;;;;24.67;9.40;;;14.50;99.90;;;;;;5074150;28;20282;-86
2024/02/16 10:58:27;;;;;;;14.80;8.07;;;14.60;99.90;;;;;;5092536;28;20639;-85
2024/02/16 11:00:54;;;;;;;21.60;9.20;;;14.50;99.90;;;;;;5074044;28;20197;-85
2024/02/16 11:03:25;;;;;;;13.60;8.20;;;14.50;99.90;;;;;;5074316;28;20254;-86
2024/02/16 11:05:51;;;;;;;15.30;8.87;;;14.50;99.90;;;;;;5074242;28;20591;-86
2024/02/16 11:08:19;;;;;;;17.40;8.87;;;14.50;99.90;;;;;;5074451;28;20179;-87
2024/02/16 11:10:57;;;;;;;40.77;12.13;;;14.40;99.90;;;;;;5074787;28;20188;-86
2024/02/16 11:13:27;;;;;;;12.60;9.17;;;14.40;99.90;;;;;;5074362;28;20167;-85
2024/02/16 11:16:04;;;;;;;19.80;10.87;;;14.40;99.90;;;;;;5074098;28;20292;-85
2024/02/16 11:18:31;;;;;;;18.60;9.03;;;14.40;99.90;;;;;;5073763;28;20186;-93
2024/02/16 11:21:00;;;;;;;14.10;9.43;;;14.30;99.90;;;;;;5073892;28;20179;-86
2024/02/16 11:23:31;;;;;;;19.03;10.10;;;14.30;99.90;;;;;;5074141;28;20181;-86
2024/02/16 11:26:04;;;;;;;13.47;9.90;;;14.30;99.90;;;;;;5076171;28;20174;-85
2024/02/16 11:28:34;;;;;;;17.03;10.57;;;14.30;99.90;;;;;;5078932;28;20266;-85
2024/02/16 11:31:01;;;;;;;17.60;11.20;;;14.20;99.90;;;;;;5095617;28;20500;-85
2024/02/16 11:33:29;;;;;;;22.47;11.63;;;14.20;99.90;;;;;;5077420;28;20264;-84
2024/02/16 11:35:57;;;;;;;19.37;11.57;;;14.20;99.90;;;;;;5077530;28;20175;-86
2024/02/16 11:38:23;;;;;;;17.83;11.87;;;14.20;99.90;;;;;;5078279;28;20178;-86
2024/02/16 11:41:02;;;;;;;18.27;11.60;;;14.10;99.90;;;;;;5077725;28;20280;-86
2024/02/16 11:43:28;;;;;;;15.03;11.43;;;14.10;99.90;;;;;;5077818;28;20549;-86
2024/02/16 11:45:53;;;;;;;20.77;12.30;;;14.10;99.90;;;;;;5095365;28;20181;-87
2024/02/16 11:48:23;;;;;;;16.70;12.63;;;14.10;99.90;;;;;;5082134;28;20175;-85
2024/02/16 11:50:50;;;;;;;17.57;12.10;;;14.10;99.90;;;;;;5083714;28;20171;-84
2024/02/16 11:53:18;;;;;;;15.43;10.90;;;14.20;99.90;;;;;;5090991;28;20193;-85
2024/02/16 11:55:48;;;;;;;14.37;11.23;;;14.20;99.90;;;;;;5091114;28;20167;-85
2024/02/16 11:58:18;;;;;;;14.07;11.13;;;14.20;99.90;;;;;;5086988;28;20178;-85
2024/02/16 12:00:45;;;;;;;16.03;11.50;;;14.10;99.90;;;;;;5082008;28;20240;-85
2024/02/16 12:03:11;;;;;;;14.97;10.60;;;14.20;99.90;;;;;;5078908;28;20612;-86
2024/02/16 12:05:37;;;;;;;14.23;11.30;;;14.10;99.90;;;;;;5077193;28;20175;-85
2024/02/16 12:08:06;;;;;;;11.73;8.60;;;14.10;99.90;;;;;;5076926;28;20178;-87
2024/02/16 12:10:31;;;;;;;11.00;7.77;;;13.90;99.90;;;;;;5076585;28;20176;-86
2024/02/16 12:12:58;;;;;;;11.57;8.50;;;13.80;99.90;;;;;;5076777;28;20179;-86
2024/02/16 12:15:24;;;;;;;10.97;9.47;;;13.80;99.90;;;;;;5076605;28;20212;-89
2024/02/16 12:18:00;;;;;;;9.43;8.47;;;13.80;99.90;;;;;;5076415;28;20284;-86
2024/02/16 12:20:25;;;;;;;11.93;8.67;;;13.70;99.90;;;;;;5076880;28;20167;-85
2024/02/16 12:22:51;;;;;;;11.37;8.67;;;13.60;99.90;;;;;;5076617;28;20186;-86
2024/02/16 12:25:17;;;;;;;8.40;7.60;;;13.70;99.90;;;;;;5076264;28;20167;-85
2024/02/16 12:27:42;;;;;;;10.23;7.90;;;13.70;99.90;;;;;;5076434;28;20669;-85
2024/02/16 12:30:09;;;;;;;9.77;7.67;;;13.60;99.90;;;;;;5076824;28;20498;-86
2024/02/16 12:32:34;;;;;;;9.23;8.30;;;13.60;99.90;;;;;;5076359;28;20164;-89
2024/02/16 12:35:00;;;;;;;11.57;8.20;;;13.60;99.90;;;;;;5076647;28;20172;-85
2024/02/16 12:37:26;;;;;;;9.10;7.43;;;13.70;99.90;;;;;;5075392;28;20252;-86
2024/02/16 12:39:51;;;;;;;10.47;8.90;;;13.60;99.90;;;;;;5076107;28;20171;-86
2024/02/16 12:42:17;;;;;;;8.83;8.03;;;13.60;99.90;;;;;;5076445;28;20173;-85